sensor_id;sensor_type;location;lat;lon;timestamp;temperature;humidity
12223;DHT22;6174;49.058;8.524;2023-11-18T07:01:08;8.00;99.90
12223;DHT22;6174;49.058;8.524;2023-11-18T07:03:39;8.10;99.90
12223;DHT22;6174;49.058;8.524;2023-11-18T07:06:07;7.90;99.90
12223;DHT22;6174;49.058;8.524;2023-11-18T07:08:35;7.80;99.90
12223;DHT22;6174;49.058;8.524;2023-11-18T07:11:01;7.90;99.90
12223;DHT22;6174;49.058;8.524;2023-11-18T07:13:28;8.10;99.90
12223;DHT22;6174;49.058;8.524;2023-11-18T07:15:55;8.10;99.90
12223;DHT22;6174;49.058;8.524;2023-11-18T07:18:26;8.20;99.90
12223;DHT22;6174;49.058;8.524;2023-11-18T07:20:56;8.40;99.90
12223;DHT22;6174;49.058;8.524;2023-11-18T07:23:23;8.20;99.90
12223;DHT22;6174;49.058;8.524;2023-11-18T07:25:50;8.20;99.90
12223;DHT22;6174;49.058;8.524;2023-11-18T07:28:20;8.20;99.90
12223;DHT22;6174;49.058;8.524;2023-11-18T07:30:47;8.20;99.90
12223;DHT22;6174;49.058;8.524;2023-11-18T07:33:14;8.00;99.90
12223;DHT22;6174;49.058;8.524;2023-11-18T07:35:43;8.00;99.90
12223;DHT22;6174;49.058;8.524;2023-11-18T07:38:12;8.10;99.90
12223;DHT22;6174;49.058;8.524;2023-11-18T09:19:13;8.30;99.90
12223;DHT22;6174;49.058;8.524;2023-11-18T09:28:56;8.40;99.90
12223;DHT22;6174;49.058;8.524;2023-11-18T12:09:16;9.90;99.90
12223;DHT22;6174;49.058;8.524;2023-11-18T12:23:05;9.90;99.90
12223;DHT22;6174;49.058;8.524;2023-11-18T13:37:46;10.30;99.90
12223;DHT22;6174;49.058;8.524;2023-11-18T13:43:08;10.10;99.90
12223;DHT22;6174;49.058;8.524;2023-11-18T13:46:02;10.10;99.90
12223;DHT22;6174;49.058;8.524;2023-11-18T13:51:07;10.10;99.90
12223;DHT22;6174;49.058;8.524;2023-11-18T13:52:00;10.10;99.90
12223;DHT22;6174;49.058;8.524;2023-11-18T13:54:53;10.20;99.90
12223;DHT22;6174;49.058;8.524;2023-11-18T13:57:54;10.20;99.90
12223;DHT22;6174;49.058;8.524;2023-11-18T14:00:25;10.20;99.90
12223;DHT22;6174;49.058;8.524;2023-11-18T14:03:06;10.20;99.90
12223;DHT22;6174;49.058;8.524;2023-11-18T14:05:42;10.40;99.90
12223;DHT22;6174;49.058;8.524;2023-11-18T14:08:21;10.50;99.90
12223;DHT22;6174;49.058;8.524;2023-11-18T14:14:13;10.40;99.90
12223;DHT22;6174;49.058;8.524;2023-11-18T14:16:42;10.40;99.90
12223;DHT22;6174;49.058;8.524;2023-11-18T14:19:11;10.40;99.90
12223;DHT22;6174;49.058;8.524;2023-11-18T14:21:41;10.30;99.90
12223;DHT22;6174;49.058;8.524;2023-11-18T14:24:09;10.30;99.90
12223;DHT22;6174;49.058;8.524;2023-11-18T14:26:37;10.20;99.90
12223;DHT22;6174;49.058;8.524;2023-11-18T14:29:05;10.20;99.90
12223;DHT22;6174;49.058;8.524;2023-11-18T14:31:52;10.50;99.90
12223;DHT22;6174;49.058;8.524;2023-11-18T14:34:23;10.10;99.90
12223;DHT22;6174;49.058;8.524;2023-11-18T14:36:51;10.20;99.90
12223;DHT22;6174;49.058;8.524;2023-11-18T14:39:20;10.20;99.90
12223;DHT22;6174;49.058;8.524;2023-11-18T14:41:54;10.30;99.90
12223;DHT22;6174;49.058;8.524;2023-11-18T14:44:23;10.30;99.90
12223;DHT22;6174;49.058;8.524;2023-11-18T14:46:54;10.30;99.90
12223;DHT22;6174;49.058;8.524;2023-11-18T14:49:24;10.20;99.90
12223;DHT22;6174;49.058;8.524;2023-11-18T14:52:49;10.10;99.90
12223;DHT22;6174;49.058;8.524;2023-11-18T14:58:16;10.20;99.90
12223;DHT22;6174;49.058;8.524;2023-11-18T15:04:17;10.30;99.90
12223;DHT22;6174;49.058;8.524;2023-11-18T15:06:54;10.20;99.90
12223;DHT22;6174;49.058;8.524;2023-11-18T15:09:21;10.50;99.90
12223;DHT22;6174;49.058;8.524;2023-11-18T15:11:51;10.40;99.90
12223;DHT22;6174;49.058;8.524;2023-11-18T15:14:19;10.10;99.90
12223;DHT22;6174;49.058;8.524;2023-11-18T15:16:50;10.10;99.90
12223;DHT22;6174;49.058;8.524;2023-11-18T15:19:19;10.10;99.90
12223;DHT22;6174;49.058;8.524;2023-11-18T15:21:46;10.30;99.90
12223;DHT22;6174;49.058;8.524;2023-11-18T15:24:14;10.20;99.90
12223;DHT22;6174;49.058;8.524;2023-11-18T15:26:43;10.20;99.90
12223;DHT22;6174;49.058;8.524;2023-11-18T15:29:21;10.20;99.90
12223;DHT22;6174;49.058;8.524;2023-11-18T15:31:53;10.30;99.90
12223;DHT22;6174;49.058;8.524;2023-11-18T15:34:21;10.30;99.90
12223;DHT22;6174;49.058;8.524;2023-11-18T15:36:48;10.20;99.90
12223;DHT22;6174;49.058;8.524;2023-11-18T15:42:50;10.20;99.90
12223;DHT22;6174;49.058;8.524;2023-11-18T15:47:40;10.30;99.90
12223;DHT22;6174;49.058;8.524;2023-11-18T15:48:45;10.40;99.90
12223;DHT22;6174;49.058;8.524;2023-11-18T15:52:34;10.30;99.90
12223;DHT22;6174;49.058;8.524;2023-11-18T16:02:12;10.30;99.90
12223;DHT22;6174;49.058;8.524;2023-11-18T16:08:15;10.20;99.90
12223;DHT22;6174;49.058;8.524;2023-11-18T16:11:05;10.30;99.90
12223;DHT22;6174;49.058;8.524;2023-11-18T16:15:00;10.00;99.90
12223;DHT22;6174;49.058;8.524;2023-11-18T16:16:59;10.20;99.90
12223;DHT22;6174;49.058;8.524;2023-11-18T16:19:28;10.10;99.90
12223;DHT22;6174;49.058;8.524;2023-11-18T16:21:55;10.10;99.90
12223;DHT22;6174;49.058;8.524;2023-11-18T16:24:23;10.00;99.90
12223;DHT22;6174;49.058;8.524;2023-11-18T16:26:50;10.00;99.90
12223;DHT22;6174;49.058;8.524;2023-11-18T16:29:18;9.90;99.90
12223;DHT22;6174;49.058;8.524;2023-11-18T16:31:47;9.90;99.90
12223;DHT22;6174;49.058;8.524;2023-11-18T16:34:16;10.00;99.90
12223;DHT22;6174;49.058;8.524;2023-11-18T16:36:45;9.90;99.90
12223;DHT22;6174;49.058;8.524;2023-11-18T16:39:13;9.90;99.90
12223;DHT22;6174;49.058;8.524;2023-11-18T16:41:42;9.80;99.90
12223;DHT22;6174;49.058;8.524;2023-11-18T16:44:08;9.90;99.90
12223;DHT22;6174;49.058;8.524;2023-11-18T16:46:37;10.00;99.90
12223;DHT22;6174;49.058;8.524;2023-11-18T16:49:05;10.00;99.90
12223;DHT22;6174;49.058;8.524;2023-11-18T16:51:32;10.00;99.90
12223;DHT22;6174;49.058;8.524;2023-11-18T16:53:59;10.00;99.90
12223;DHT22;6174;49.058;8.524;2023-11-18T16:56:28;10.20;99.90
12223;DHT22;6174;49.058;8.524;2023-11-18T16:58:56;10.00;99.90
12223;DHT22;6174;49.058;8.524;2023-11-18T17:01:25;10.00;99.90
12223;DHT22;6174;49.058;8.524;2023-11-18T17:03:52;9.80;99.90
12223;DHT22;6174;49.058;8.524;2023-11-18T17:06:19;9.80;99.90
12223;DHT22;6174;49.058;8.524;2023-11-18T17:08:46;9.90;99.90
12223;DHT22;6174;49.058;8.524;2023-11-18T17:11:13;9.90;99.90
12223;DHT22;6174;49.058;8.524;2023-11-18T17:13:40;10.00;99.90
12223;DHT22;6174;49.058;8.524;2023-11-18T17:16:09;10.00;99.90
12223;DHT22;6174;49.058;8.524;2023-11-18T17:18:36;9.80;99.90
12223;DHT22;6174;49.058;8.524;2023-11-18T17:21:03;9.70;99.90
12223;DHT22;6174;49.058;8.524;2023-11-18T17:23:30;9.80;99.90
12223;DHT22;6174;49.058;8.524;2023-11-18T17:26:00;9.90;99.90
12223;DHT22;6174;49.058;8.524;2023-11-18T17:28:30;9.80;99.90
12223;DHT22;6174;49.058;8.524;2023-11-18T17:30:57;9.90;99.90
12223;DHT22;6174;49.058;8.524;2023-11-18T17:33:25;10.00;99.90
12223;DHT22;6174;49.058;8.524;2023-11-18T17:35:54;10.10;99.90
12223;DHT22;6174;49.058;8.524;2023-11-18T17:38:28;10.00;99.90
12223;DHT22;6174;49.058;8.524;2023-11-18T17:40:54;10.00;99.90
12223;DHT22;6174;49.058;8.524;2023-11-18T17:43:21;10.00;99.90
12223;DHT22;6174;49.058;8.524;2023-11-18T17:45:48;10.00;99.90
12223;DHT22;6174;49.058;8.524;2023-11-18T17:48:15;10.00;99.90
12223;DHT22;6174;49.058;8.524;2023-11-18T17:50:43;10.00;99.90
12223;DHT22;6174;49.058;8.524;2023-11-18T17:53:10;10.00;99.90
12223;DHT22;6174;49.058;8.524;2023-11-18T17:55:37;10.00;99.90
12223;DHT22;6174;49.058;8.524;2023-11-18T17:58:04;10.00;99.90
12223;DHT22;6174;49.058;8.524;2023-11-18T18:00:31;10.40;99.90
12223;DHT22;6174;49.058;8.524;2023-11-18T18:02:58;10.00;99.90
12223;DHT22;6174;49.058;8.524;2023-11-18T18:05:25;9.80;99.90
12223;DHT22;6174;49.058;8.524;2023-11-18T18:07:54;9.80;99.90
12223;DHT22;6174;49.058;8.524;2023-11-18T18:10:22;9.80;99.90
12223;DHT22;6174;49.058;8.524;2023-11-18T18:12:52;9.80;99.90
12223;DHT22;6174;49.058;8.524;2023-11-18T18:15:19;9.70;99.90
12223;DHT22;6174;49.058;8.524;2023-11-18T18:17:50;9.70;99.90
12223;DHT22;6174;49.058;8.524;2023-11-18T18:20:17;9.80;99.90
12223;DHT22;6174;49.058;8.524;2023-11-18T18:22:45;9.80;99.90
12223;DHT22;6174;49.058;8.524;2023-11-18T18:25:15;9.80;99.90
12223;DHT22;6174;49.058;8.524;2023-11-18T18:27:42;9.80;99.90
12223;DHT22;6174;49.058;8.524;2023-11-18T18:30:11;9.70;99.90
12223;DHT22;6174;49.058;8.524;2023-11-18T18:32:39;9.60;99.90
12223;DHT22;6174;49.058;8.524;2023-11-18T18:35:07;9.60;99.90
12223;DHT22;6174;49.058;8.524;2023-11-18T18:37:34;9.50;99.90
12223;DHT22;6174;49.058;8.524;2023-11-18T18:40:06;9.40;99.90
12223;DHT22;6174;49.058;8.524;2023-11-18T18:42:38;9.50;99.90
12223;DHT22;6174;49.058;8.524;2023-11-18T18:45:08;9.50;99.90
12223;DHT22;6174;49.058;8.524;2023-11-18T18:47:35;9.50;99.90
12223;DHT22;6174;49.058;8.524;2023-11-18T18:50:06;9.60;99.90
12223;DHT22;6174;49.058;8.524;2023-11-18T18:52:34;9.60;99.90
12223;DHT22;6174;49.058;8.524;2023-11-18T18:55:01;9.70;99.90
12223;DHT22;6174;49.058;8.524;2023-11-18T18:57:29;9.70;99.90
12223;DHT22;6174;49.058;8.524;2023-11-18T18:59:58;9.80;99.90
12223;DHT22;6174;49.058;8.524;2023-11-18T19:02:25;9.80;99.90
12223;DHT22;6174;49.058;8.524;2023-11-18T19:04:52;9.80;99.90
12223;DHT22;6174;49.058;8.524;2023-11-18T19:07:20;9.80;99.90
12223;DHT22;6174;49.058;8.524;2023-11-18T19:09:47;9.90;99.90
12223;DHT22;6174;49.058;8.524;2023-11-18T19:12:14;10.00;99.90
12223;DHT22;6174;49.058;8.524;2023-11-18T19:14:42;9.70;99.90
12223;DHT22;6174;49.058;8.524;2023-11-18T19:17:10;9.30;99.90
12223;DHT22;6174;49.058;8.524;2023-11-18T19:19:41;9.30;99.90
12223;DHT22;6174;49.058;8.524;2023-11-18T19:22:08;9.40;99.90
12223;DHT22;6174;49.058;8.524;2023-11-18T19:24:35;9.60;99.90
12223;DHT22;6174;49.058;8.524;2023-11-18T19:27:04;9.50;99.90
12223;DHT22;6174;49.058;8.524;2023-11-18T19:29:35;9.70;99.90
12223;DHT22;6174;49.058;8.524;2023-11-18T19:32:02;9.70;99.90
12223;DHT22;6174;49.058;8.524;2023-11-18T19:34:30;9.50;99.90
12223;DHT22;6174;49.058;8.524;2023-11-18T19:36:57;9.40;99.90
12223;DHT22;6174;49.058;8.524;2023-11-18T19:39:24;9.30;99.90
12223;DHT22;6174;49.058;8.524;2023-11-18T19:41:52;9.30;99.90
12223;DHT22;6174;49.058;8.524;2023-11-18T19:44:20;9.40;99.90
12223;DHT22;6174;49.058;8.524;2023-11-18T19:46:47;9.50;99.90
12223;DHT22;6174;49.058;8.524;2023-11-18T19:49:16;9.90;99.90
12223;DHT22;6174;49.058;8.524;2023-11-18T19:51:44;9.50;99.90
12223;DHT22;6174;49.058;8.524;2023-11-18T19:54:12;9.40;99.90
12223;DHT22;6174;49.058;8.524;2023-11-18T19:56:39;9.60;99.90
12223;DHT22;6174;49.058;8.524;2023-11-18T19:59:06;9.70;99.90
12223;DHT22;6174;49.058;8.524;2023-11-18T20:01:33;9.60;99.90
12223;DHT22;6174;49.058;8.524;2023-11-18T20:04:00;9.60;99.90
12223;DHT22;6174;49.058;8.524;2023-11-18T20:06:27;10.00;99.90
12223;DHT22;6174;49.058;8.524;2023-11-18T20:08:55;9.80;99.90
12223;DHT22;6174;49.058;8.524;2023-11-18T20:11:23;9.90;99.90
12223;DHT22;6174;49.058;8.524;2023-11-18T20:13:49;9.90;99.90
12223;DHT22;6174;49.058;8.524;2023-11-18T20:16:18;9.90;99.90
12223;DHT22;6174;49.058;8.524;2023-11-18T20:18:46;10.00;99.90
12223;DHT22;6174;49.058;8.524;2023-11-18T20:21:16;10.00;99.90
12223;DHT22;6174;49.058;8.524;2023-11-18T20:23:43;10.00;99.90
12223;DHT22;6174;49.058;8.524;2023-11-18T20:26:11;9.90;99.90
12223;DHT22;6174;49.058;8.524;2023-11-18T20:28:38;10.00;99.90
12223;DHT22;6174;49.058;8.524;2023-11-18T20:31:06;9.90;99.90
12223;DHT22;6174;49.058;8.524;2023-11-18T20:33:35;9.90;99.90
12223;DHT22;6174;49.058;8.524;2023-11-18T20:36:02;9.80;99.90
12223;DHT22;6174;49.058;8.524;2023-11-18T20:38:29;10.00;99.90
12223;DHT22;6174;49.058;8.524;2023-11-18T20:40:59;10.00;99.90
12223;DHT22;6174;49.058;8.524;2023-11-18T20:43:27;10.40;99.90
12223;DHT22;6174;49.058;8.524;2023-11-18T20:45:55;10.00;99.90
12223;DHT22;6174;49.058;8.524;2023-11-18T20:48:24;10.00;99.90
12223;DHT22;6174;49.058;8.524;2023-11-18T20:50:51;9.80;99.90
12223;DHT22;6174;49.058;8.524;2023-11-18T20:53:18;10.00;99.90
12223;DHT22;6174;49.058;8.524;2023-11-18T20:55:45;10.00;99.90
12223;DHT22;6174;49.058;8.524;2023-11-18T20:58:12;10.10;99.90
12223;DHT22;6174;49.058;8.524;2023-11-18T21:00:41;10.00;99.90
12223;DHT22;6174;49.058;8.524;2023-11-18T21:03:08;10.00;99.90
12223;DHT22;6174;49.058;8.524;2023-11-18T21:05:35;10.10;99.90
12223;DHT22;6174;49.058;8.524;2023-11-18T21:08:02;10.10;99.90
12223;DHT22;6174;49.058;8.524;2023-11-18T21:10:32;10.10;99.90
12223;DHT22;6174;49.058;8.524;2023-11-18T21:12:59;10.20;99.90
12223;DHT22;6174;49.058;8.524;2023-11-18T21:15:26;10.00;99.90
12223;DHT22;6174;49.058;8.524;2023-11-18T21:17:56;10.10;99.90
12223;DHT22;6174;49.058;8.524;2023-11-18T21:20:23;10.10;99.90
12223;DHT22;6174;49.058;8.524;2023-11-18T21:22:51;10.20;99.90
12223;DHT22;6174;49.058;8.524;2023-11-18T21:25:18;10.30;99.90
12223;DHT22;6174;49.058;8.524;2023-11-18T21:27:45;10.30;99.90
12223;DHT22;6174;49.058;8.524;2023-11-18T21:30:13;10.30;99.90
12223;DHT22;6174;49.058;8.524;2023-11-18T21:32:42;10.30;99.90
12223;DHT22;6174;49.058;8.524;2023-11-18T21:35:12;10.40;99.90
12223;DHT22;6174;49.058;8.524;2023-11-18T21:37:40;10.50;99.90
12223;DHT22;6174;49.058;8.524;2023-11-18T21:40:07;10.40;99.90
12223;DHT22;6174;49.058;8.524;2023-11-18T21:42:37;10.40;99.90
12223;DHT22;6174;49.058;8.524;2023-11-18T21:45:05;10.40;99.90
12223;DHT22;6174;49.058;8.524;2023-11-18T21:47:32;10.30;99.90
12223;DHT22;6174;49.058;8.524;2023-11-18T21:49:59;10.30;99.90
12223;DHT22;6174;49.058;8.524;2023-11-18T21:52:28;10.40;99.90
12223;DHT22;6174;49.058;8.524;2023-11-18T21:54:55;10.20;99.90
12223;DHT22;6174;49.058;8.524;2023-11-18T21:57:22;10.20;99.90
12223;DHT22;6174;49.058;8.524;2023-11-18T21:59:49;10.10;99.90
12223;DHT22;6174;49.058;8.524;2023-11-18T22:02:16;10.30;99.90
12223;DHT22;6174;49.058;8.524;2023-11-18T22:04:47;10.10;99.90
12223;DHT22;6174;49.058;8.524;2023-11-18T22:07:14;10.10;99.90
12223;DHT22;6174;49.058;8.524;2023-11-18T22:09:44;10.10;99.90
12223;DHT22;6174;49.058;8.524;2023-11-18T22:12:12;10.10;99.90
12223;DHT22;6174;49.058;8.524;2023-11-18T22:14:39;10.00;99.90
12223;DHT22;6174;49.058;8.524;2023-11-18T22:17:06;10.20;99.90
12223;DHT22;6174;49.058;8.524;2023-11-18T22:19:33;10.10;99.90
12223;DHT22;6174;49.058;8.524;2023-11-18T22:22:00;10.10;99.90
12223;DHT22;6174;49.058;8.524;2023-11-18T22:24:28;10.10;99.90
12223;DHT22;6174;49.058;8.524;2023-11-18T22:26:58;10.20;99.90
12223;DHT22;6174;49.058;8.524;2023-11-18T22:29:25;10.10;99.90
12223;DHT22;6174;49.058;8.524;2023-11-18T22:31:52;10.20;99.90
12223;DHT22;6174;49.058;8.524;2023-11-18T22:34:19;10.20;99.90
12223;DHT22;6174;49.058;8.524;2023-11-18T22:36:45;10.20;99.90
12223;DHT22;6174;49.058;8.524;2023-11-18T22:39:13;10.30;99.90
12223;DHT22;6174;49.058;8.524;2023-11-18T22:41:44;10.30;99.90
12223;DHT22;6174;49.058;8.524;2023-11-18T22:44:12;10.30;99.90
12223;DHT22;6174;49.058;8.524;2023-11-18T22:46:39;10.30;99.90
12223;DHT22;6174;49.058;8.524;2023-11-18T22:49:06;10.40;99.90
12223;DHT22;6174;49.058;8.524;2023-11-18T22:51:35;10.30;99.90
12223;DHT22;6174;49.058;8.524;2023-11-18T22:54:02;10.40;99.90
12223;DHT22;6174;49.058;8.524;2023-11-18T22:56:29;10.30;99.90
12223;DHT22;6174;49.058;8.524;2023-11-18T22:58:56;10.20;99.90
12223;DHT22;6174;49.058;8.524;2023-11-18T23:01:24;10.30;99.90
12223;DHT22;6174;49.058;8.524;2023-11-18T23:03:51;10.20;99.90
12223;DHT22;6174;49.058;8.524;2023-11-18T23:06:18;10.10;99.90
12223;DHT22;6174;49.058;8.524;2023-11-18T23:08:50;10.20;99.90
12223;DHT22;6174;49.058;8.524;2023-11-18T23:11:20;10.20;99.90
12223;DHT22;6174;49.058;8.524;2023-11-18T23:13:48;10.30;99.90
12223;DHT22;6174;49.058;8.524;2023-11-18T23:16:17;10.30;99.90
12223;DHT22;6174;49.058;8.524;2023-11-18T23:18:46;10.30;99.90
12223;DHT22;6174;49.058;8.524;2023-11-18T23:21:15;10.30;99.90
12223;DHT22;6174;49.058;8.524;2023-11-18T23:23:43;10.30;99.90
12223;DHT22;6174;49.058;8.524;2023-11-18T23:26:11;10.40;99.90
12223;DHT22;6174;49.058;8.524;2023-11-18T23:28:38;10.50;99.90
